Roscoe, Illinois
Current Conditions -  °F | °C
As of 2:45 PM on Wednesday 17 Dec 2014 (Local Time) from KJVL Reporting Station
Overcast Overcast  
Wind Chill: 15°   Ceiling: 2200
Heat Index: 27°   Visibility: 10mi
Dew Point: 18°   Wind: 14mph
Humidity: 69%   Direction: 310°NW
Pressure: 30.22"   Gusts: NA
Location:  42.41°N, 89.01°W
Report Text: KJVL 172045Z 31012KT 10SM OVC022 M03/M08 A3022
Loading
Personal Weather Stations






























Interactive Weather Map New forecast layout! Learn more

10-Day Weather Forecast

Advertisements
Track Severe Weather on mobile